createdAt,value
2018-12-05T00:00:27.564Z,7.97
2018-12-05T00:02:56.940Z,7.80
2018-12-05T00:05:26.510Z,7.17
2018-12-05T00:07:56.948Z,7.47
2018-12-05T00:10:26.148Z,7.83
2018-12-05T00:12:55.606Z,8.10
2018-12-05T00:15:24.984Z,7.70
2018-12-05T00:17:54.681Z,7.80
2018-12-05T00:20:24.081Z,8.63
2018-12-05T00:22:53.456Z,7.43
2018-12-05T00:25:22.795Z,7.83
2018-12-05T00:27:52.258Z,7.03
2018-12-05T00:30:21.625Z,7.33
2018-12-05T00:32:50.970Z,7.00
2018-12-05T00:35:20.344Z,6.17
2018-12-05T00:37:49.807Z,6.87
2018-12-05T00:40:19.300Z,7.80
2018-12-05T00:42:48.620Z,7.27
2018-12-05T00:45:18.094Z,7.13
2018-12-05T00:47:47.465Z,7.67
2018-12-05T00:50:16.803Z,7.23
2018-12-05T00:52:46.229Z,7.17
2018-12-05T00:55:15.656Z,7.00
2018-12-05T00:57:45.026Z,7.33
2018-12-05T01:00:14.412Z,7.17
2018-12-05T01:02:43.765Z,6.80
2018-12-05T01:05:13.057Z,6.87
2018-12-05T01:07:42.467Z,7.33
2018-12-05T01:10:11.807Z,6.37
2018-12-05T01:12:41.198Z,7.37
2018-12-05T01:15:10.500Z,7.07
2018-12-05T01:17:40.010Z,6.87
2018-12-05T01:20:09.389Z,5.87
2018-12-05T01:22:38.733Z,7.10
2018-12-05T01:25:08.070Z,7.20
2018-12-05T01:27:37.399Z,7.03
2018-12-05T01:30:06.705Z,6.83
2018-12-05T01:32:36.092Z,7.17
2018-12-05T01:35:08.138Z,7.23
2018-12-05T01:37:37.493Z,6.63
2018-12-05T01:40:06.902Z,6.40
2018-12-05T01:42:36.263Z,7.40
2018-12-05T01:45:05.972Z,6.77
2018-12-05T01:47:35.245Z,6.53
2018-12-05T01:50:05.307Z,5.50
2018-12-05T01:52:34.647Z,6.27
2018-12-05T01:55:04.185Z,6.10
2018-12-05T01:57:33.561Z,6.17
2018-12-05T02:00:02.937Z,6.53
2018-12-05T02:02:33.784Z,6.50
2018-12-05T02:05:03.239Z,5.83
2018-12-05T02:07:32.530Z,7.50
2018-12-05T02:10:01.761Z,6.30
2018-12-05T02:12:31.684Z,6.40
2018-12-05T02:15:01.021Z,5.93
2018-12-05T02:17:30.837Z,7.30
2018-12-05T02:20:01.140Z,6.67
2018-12-05T02:22:30.399Z,6.87
2018-12-05T02:24:59.611Z,6.33
2018-12-05T02:27:28.867Z,6.07
2018-12-05T02:29:58.143Z,6.17
2018-12-05T02:32:27.388Z,6.30
2018-12-05T02:34:56.697Z,6.43
2018-12-05T02:37:25.954Z,5.50
2018-12-05T02:39:55.194Z,5.23
2018-12-05T02:42:24.405Z,5.63
2018-12-05T02:44:53.683Z,6.70
2018-12-05T02:47:22.932Z,6.37
2018-12-05T02:49:52.288Z,7.53
2018-12-05T02:52:21.654Z,6.87
2018-12-05T02:54:50.837Z,5.93
2018-12-05T02:57:20.169Z,6.40
2018-12-05T02:59:49.488Z,5.70
2018-12-05T03:02:18.778Z,6.80
2018-12-05T03:04:48.085Z,6.20
2018-12-05T03:07:17.578Z,7.67
2018-12-05T03:09:47.893Z,5.57
2018-12-05T03:12:17.250Z,6.73
2018-12-05T03:14:46.583Z,6.53
2018-12-05T03:17:15.932Z,7.03
2018-12-05T03:19:46.840Z,5.60
2018-12-05T03:22:16.175Z,6.57
2018-12-05T03:24:45.395Z,5.43
2018-12-05T03:27:14.647Z,6.13
2018-12-05T03:29:44.101Z,5.50
2018-12-05T03:32:15.377Z,6.07
2018-12-05T03:34:44.779Z,5.83
2018-12-05T03:37:14.547Z,5.57
2018-12-05T03:39:43.865Z,5.33
2018-12-05T03:42:13.319Z,5.43
2018-12-05T03:44:42.689Z,6.37
2018-12-05T03:47:11.983Z,5.97
2018-12-05T03:49:45.239Z,6.00
2018-12-05T03:52:14.507Z,6.53
2018-12-05T03:54:43.795Z,5.47
2018-12-05T03:57:13.385Z,5.60
2018-12-05T03:59:42.670Z,5.20
2018-12-05T04:02:12.010Z,6.93
2018-12-05T04:04:41.328Z,5.87
2018-12-05T04:07:10.594Z,6.73
2018-12-05T04:09:39.908Z,6.13
2018-12-05T04:12:09.148Z,6.03
2018-12-05T04:14:38.420Z,6.53
2018-12-05T04:17:07.747Z,5.63
2018-12-05T04:19:36.995Z,5.43
2018-12-05T04:22:06.288Z,6.07
2018-12-05T04:24:35.603Z,5.63
2018-12-05T04:27:04.930Z,6.73
2018-12-05T04:29:34.427Z,6.83
2018-12-05T04:32:03.847Z,5.23
2018-12-05T04:34:33.190Z,6.13
2018-12-05T04:37:02.479Z,5.37
2018-12-05T04:39:31.929Z,6.10
2018-12-05T04:42:01.334Z,5.87
2018-12-05T04:44:30.770Z,6.63
2018-12-05T04:47:00.048Z,5.07
2018-12-05T04:49:29.280Z,5.80
2018-12-05T04:51:59.127Z,5.43
2018-12-05T04:54:28.641Z,7.73
2018-12-05T04:56:58.387Z,10.40
2018-12-05T04:59:27.740Z,7.63
2018-12-05T05:01:57.065Z,8.23
2018-12-05T05:04:26.621Z,8.13
2018-12-05T05:06:55.947Z,7.47
2018-12-05T05:09:25.289Z,7.73
2018-12-05T05:11:54.612Z,7.50
2018-12-05T05:14:25.669Z,7.70
2018-12-05T05:16:55.004Z,6.60
2018-12-05T05:19:24.297Z,7.43
2018-12-05T05:21:53.639Z,7.60
2018-12-05T05:24:22.974Z,7.67
2018-12-05T05:26:52.406Z,7.50
2018-12-05T05:29:21.758Z,7.57
2018-12-05T05:31:51.207Z,6.77
2018-12-05T05:34:20.555Z,8.20
2018-12-05T05:36:49.944Z,6.20
2018-12-05T05:39:19.457Z,6.30
2018-12-05T05:41:48.924Z,6.53
2018-12-05T05:44:18.289Z,7.27
2018-12-05T05:46:47.738Z,6.27
2018-12-05T05:49:17.041Z,6.07
2018-12-05T05:51:46.661Z,5.83
2018-12-05T05:54:19.200Z,6.43
2018-12-05T05:56:49.166Z,6.37
2018-12-05T05:59:18.633Z,6.73
2018-12-05T06:01:47.970Z,7.00
2018-12-05T06:04:17.456Z,7.30
2018-12-05T06:06:46.790Z,6.73
2018-12-05T06:09:16.079Z,6.33
2018-12-05T06:11:45.686Z,7.03
2018-12-05T06:14:14.958Z,7.87
2018-12-05T06:16:44.749Z,8.00
2018-12-05T06:19:13.977Z,7.43
2018-12-05T06:21:43.326Z,9.40
2018-12-05T06:24:12.862Z,7.10
2018-12-05T06:26:42.130Z,8.30
2018-12-05T06:29:11.426Z,9.20
2018-12-05T06:31:40.820Z,8.17
2018-12-05T06:34:10.249Z,7.90
2018-12-05T06:36:41.614Z,7.00
2018-12-05T06:39:10.915Z,6.63
2018-12-05T06:41:40.480Z,6.33
2018-12-05T06:44:09.932Z,5.60
2018-12-05T06:46:39.345Z,6.97
2018-12-05T06:49:08.738Z,7.03
2018-12-05T06:51:38.258Z,6.17
2018-12-05T06:54:07.624Z,6.97
2018-12-05T06:56:38.290Z,6.33
2018-12-05T06:59:07.775Z,6.20
2018-12-05T07:01:37.176Z,7.10
2018-12-05T07:04:06.553Z,6.97
2018-12-05T07:06:35.888Z,6.90
2018-12-05T07:09:08.565Z,6.77
2018-12-05T07:11:38.098Z,7.47
2018-12-05T07:14:07.413Z,7.20
2018-12-05T07:16:36.742Z,7.67
2018-12-05T07:19:06.163Z,7.83
2018-12-05T07:21:35.641Z,6.63
2018-12-05T07:24:04.966Z,7.87
2018-12-05T07:26:34.376Z,8.40
2018-12-05T07:29:04.805Z,8.60
2018-12-05T07:31:34.530Z,7.93
2018-12-05T07:34:03.978Z,8.77
2018-12-05T07:36:33.175Z,11.57
2018-12-05T07:39:02.946Z,9.70
2018-12-05T07:41:34.086Z,8.27
2018-12-05T07:44:03.644Z,8.03
2018-12-05T07:46:33.004Z,6.93
2018-12-05T07:49:02.422Z,7.93
2018-12-05T07:51:31.785Z,7.80
2018-12-05T07:54:01.197Z,7.47
2018-12-05T07:56:30.545Z,8.10
2018-12-05T07:58:59.994Z,7.77
2018-12-05T08:01:29.393Z,8.83
2018-12-05T08:03:58.843Z,7.60
2018-12-05T08:06:28.243Z,8.17
2018-12-05T08:08:57.625Z,7.57
2018-12-05T08:11:27.107Z,7.10
2018-12-05T08:13:56.471Z,7.43
2018-12-05T08:16:27.140Z,7.57
2018-12-05T08:18:56.528Z,6.83
2018-12-05T08:21:25.889Z,6.03
2018-12-05T08:23:55.210Z,7.40
2018-12-05T08:26:24.732Z,6.30
2018-12-05T08:28:54.153Z,8.30
2018-12-05T08:31:23.657Z,7.73
2018-12-05T08:33:53.104Z,8.10
2018-12-05T08:36:22.474Z,7.77
2018-12-05T08:38:51.785Z,8.97
2018-12-05T08:41:21.124Z,7.43
2018-12-05T08:43:50.545Z,7.50
2018-12-05T08:46:22.284Z,8.15
2018-12-05T08:48:52.179Z,7.07
2018-12-05T08:51:21.704Z,7.57
2018-12-05T08:53:51.370Z,7.70
2018-12-05T08:56:20.631Z,7.30
2018-12-05T08:58:49.951Z,9.03
2018-12-05T09:01:19.313Z,7.67
2018-12-05T09:03:48.697Z,8.20
2018-12-05T09:06:18.097Z,6.80
2018-12-05T09:08:48.130Z,7.50
2018-12-05T09:11:17.387Z,7.13
2018-12-05T09:13:47.683Z,7.40
2018-12-05T09:16:17.128Z,7.60
2018-12-05T09:18:46.486Z,7.87
2018-12-05T09:21:15.789Z,7.60
2018-12-05T09:23:45.154Z,8.10
2018-12-05T09:26:14.514Z,6.87
2018-12-05T09:28:43.889Z,7.40
2018-12-05T09:31:13.230Z,7.13
2018-12-05T09:33:42.549Z,6.80
2018-12-05T09:36:11.948Z,7.43
2018-12-05T09:38:41.207Z,7.47
2018-12-05T09:41:10.533Z,7.90
2018-12-05T09:43:39.952Z,7.90
2018-12-05T09:46:09.318Z,8.93
2018-12-05T09:48:39.796Z,8.60
2018-12-05T09:51:09.216Z,8.60
2018-12-05T09:53:38.666Z,9.00
2018-12-05T09:56:07.988Z,8.60
2018-12-05T09:58:37.395Z,8.33
2018-12-05T10:01:06.760Z,8.23
2018-12-05T10:03:36.025Z,8.87
2018-12-05T10:06:05.248Z,7.63
2018-12-05T10:08:34.601Z,7.57
2018-12-05T10:11:03.887Z,7.77
2018-12-05T10:13:34.379Z,7.80
2018-12-05T10:16:03.847Z,8.00
2018-12-05T10:18:33.128Z,8.53
2018-12-05T10:21:02.489Z,7.70
2018-12-05T10:23:31.776Z,8.17
2018-12-05T10:26:01.227Z,8.13
2018-12-05T10:28:30.615Z,9.43
2018-12-05T10:31:00.198Z,9.97
2018-12-05T10:33:30.167Z,8.20
2018-12-05T10:36:00.656Z,9.60
2018-12-05T10:38:30.001Z,9.37
2018-12-05T10:40:59.304Z,7.23
2018-12-05T10:43:28.693Z,9.17
2018-12-05T10:45:58.006Z,9.57
2018-12-05T10:48:27.284Z,8.00
2018-12-05T10:50:59.275Z,8.85
2018-12-05T10:53:28.779Z,8.30
2018-12-05T10:55:58.151Z,7.37
2018-12-05T10:58:27.469Z,8.07
2018-12-05T11:01:00.914Z,7.37
2018-12-05T11:03:34.395Z,8.03
2018-12-05T11:06:09.034Z,7.67
2018-12-05T11:08:42.474Z,5.80
2018-12-05T11:11:15.976Z,5.97
2018-12-05T11:13:49.542Z,5.65
2018-12-05T11:16:23.292Z,5.80
2018-12-05T11:18:56.794Z,5.78
2018-12-05T11:21:30.326Z,5.10
2018-12-05T11:24:03.841Z,5.83
2018-12-05T11:26:35.134Z,5.37
2018-12-05T11:29:06.080Z,6.83
2018-12-05T11:31:35.487Z,5.70
2018-12-05T11:34:05.310Z,6.12
2018-12-05T11:36:34.667Z,5.33
2018-12-05T11:39:06.911Z,6.00
2018-12-05T11:41:37.865Z,6.20
2018-12-05T11:44:07.256Z,5.65
2018-12-05T11:46:36.649Z,5.87
2018-12-05T11:49:06.044Z,5.65
2018-12-05T11:51:35.396Z,6.92
2018-12-05T11:54:04.776Z,6.83
2018-12-05T11:56:34.127Z,6.05
2018-12-05T11:59:03.520Z,7.42
2018-12-05T12:01:32.891Z,6.30
2018-12-05T12:04:02.291Z,6.75
2018-12-05T12:06:31.650Z,6.55
2018-12-05T12:09:01.016Z,6.60
2018-12-05T12:11:32.226Z,7.30
2018-12-05T12:14:01.728Z,8.33
2018-12-05T12:16:30.972Z,7.05
2018-12-05T12:19:00.515Z,6.67
2018-12-05T12:21:29.841Z,7.08
2018-12-05T12:23:59.211Z,7.80
2018-12-05T12:26:33.231Z,6.92
2018-12-05T12:28:59.878Z,7.70
2018-12-05T12:31:29.287Z,8.58
2018-12-05T12:33:58.546Z,7.25
2018-12-05T12:36:27.930Z,6.85
2018-12-05T12:38:57.394Z,7.35
2018-12-05T12:41:26.693Z,7.78
2018-12-05T12:43:56.011Z,9.28
2018-12-05T12:46:25.351Z,7.72
2018-12-05T12:48:54.769Z,7.92
2018-12-05T12:51:24.204Z,8.08
2018-12-05T12:53:53.563Z,8.98
2018-12-05T12:56:22.951Z,8.43
2018-12-05T12:58:52.275Z,8.95
2018-12-05T13:01:21.651Z,9.78
2018-12-05T13:03:50.928Z,8.60
2018-12-05T13:06:20.368Z,8.53
2018-12-05T13:08:49.674Z,9.15
2018-12-05T13:11:19.050Z,8.15
2018-12-05T13:13:49.650Z,8.60
2018-12-05T13:16:19.086Z,9.70
2018-12-05T13:18:48.389Z,9.10
2018-12-05T13:21:17.635Z,8.97
2018-12-05T13:23:46.973Z,7.75
2018-12-05T13:26:16.206Z,8.90
2018-12-05T13:28:46.126Z,8.33
2018-12-05T13:31:15.506Z,8.07
2018-12-05T13:33:44.879Z,8.73
2018-12-05T13:36:14.124Z,9.93
2018-12-05T13:38:43.385Z,9.50
2018-12-05T13:41:12.707Z,10.60
2018-12-05T13:43:42.175Z,10.23
2018-12-05T13:46:11.547Z,11.75
2018-12-05T13:48:40.903Z,10.90
2018-12-05T13:51:10.229Z,9.88
2018-12-05T13:53:39.689Z,10.00
2018-12-05T13:56:09.072Z,10.40
2018-12-05T13:58:38.577Z,10.80
2018-12-05T14:01:07.951Z,10.37
2018-12-05T14:03:37.223Z,12.07
2018-12-05T14:06:06.689Z,11.55
2018-12-05T14:08:35.987Z,18.60
2018-12-05T14:11:05.276Z,18.63
2018-12-05T14:13:34.668Z,15.80
2018-12-05T14:16:04.093Z,15.30
2018-12-05T14:18:33.450Z,15.60
2018-12-05T14:21:02.756Z,15.83
2018-12-05T14:23:32.177Z,17.05
2018-12-05T14:26:01.682Z,17.87
2018-12-05T14:28:31.016Z,20.27
2018-12-05T14:31:00.253Z,19.83
2018-12-05T14:33:29.657Z,19.07
2018-12-05T14:35:59.047Z,19.20
2018-12-05T14:38:28.475Z,19.17
2018-12-05T14:41:10.354Z,18.23
2018-12-05T14:43:41.641Z,23.27
2018-12-05T14:46:10.987Z,20.63
2018-12-05T14:48:40.289Z,22.87
2018-12-05T14:51:10.898Z,22.67
2018-12-05T14:53:40.281Z,23.17
2018-12-05T14:56:09.588Z,21.43
2018-12-05T14:58:38.939Z,25.32
2018-12-05T15:01:09.945Z,25.33
2018-12-05T15:03:39.276Z,23.73
2018-12-05T15:06:08.597Z,29.90
2018-12-05T15:08:38.148Z,25.40
2018-12-05T15:11:07.474Z,25.57
2018-12-05T15:13:36.811Z,24.10
2018-12-05T15:16:07.709Z,23.57
2018-12-05T15:18:37.022Z,19.97
2018-12-05T15:21:06.420Z,19.73
2018-12-05T15:23:35.721Z,18.50
2018-12-05T15:26:05.088Z,19.07
2018-12-05T15:28:34.448Z,19.90
2018-12-05T15:31:05.328Z,22.17
2018-12-05T15:33:34.685Z,20.20
2018-12-05T15:36:04.039Z,19.43
2018-12-05T15:38:33.316Z,15.40
2018-12-05T15:41:02.851Z,17.27
2018-12-05T15:43:32.279Z,17.07
2018-12-05T15:46:04.392Z,17.50
2018-12-05T15:48:33.735Z,17.27
2018-12-05T15:51:03.117Z,16.40
2018-12-05T15:53:32.433Z,19.93
2018-12-05T15:56:01.826Z,17.93
2018-12-05T15:58:34.297Z,19.10
2018-12-05T16:01:03.596Z,19.00
2018-12-05T16:03:34.031Z,20.87
2018-12-05T16:06:03.397Z,23.90
2018-12-05T16:08:32.909Z,22.80
2018-12-05T16:11:02.366Z,20.70
2018-12-05T16:13:32.498Z,20.90
2018-12-05T16:16:01.861Z,20.27
2018-12-05T16:18:31.217Z,25.80
2018-12-05T16:21:00.597Z,24.37
2018-12-05T16:23:29.850Z,22.90
2018-12-05T16:25:59.218Z,24.70
2018-12-05T16:28:28.604Z,26.00
2018-12-05T16:30:57.926Z,23.93
2018-12-05T16:33:27.319Z,26.93
2018-12-05T16:35:56.770Z,23.87
2018-12-05T16:38:27.730Z,24.83
2018-12-05T16:40:57.065Z,24.73
2018-12-05T16:43:26.673Z,26.17
2018-12-05T16:45:56.042Z,38.07
2018-12-05T16:48:25.367Z,33.43
2018-12-05T16:50:54.782Z,37.93
2018-12-05T16:53:24.131Z,32.07
2018-12-05T16:55:53.446Z,31.37
2018-12-05T16:58:22.786Z,28.40
2018-12-05T17:00:52.225Z,29.03
2018-12-05T17:03:21.592Z,26.00
2018-12-05T17:05:50.924Z,26.27
2018-12-05T17:08:20.195Z,26.23
2018-12-05T17:10:49.563Z,26.33
2018-12-05T17:13:18.840Z,27.67
2018-12-05T17:15:48.083Z,30.30
2018-12-05T17:18:17.693Z,28.90
2018-12-05T17:20:46.969Z,28.43
2018-12-05T17:23:16.312Z,26.10
2018-12-05T17:25:45.732Z,28.73
2018-12-05T17:28:15.166Z,29.13
2018-12-05T17:30:44.460Z,27.87
2018-12-05T17:33:13.853Z,29.43
2018-12-05T17:35:43.248Z,27.40
2018-12-05T17:38:12.601Z,25.60
2018-12-05T17:40:41.853Z,26.53
2018-12-05T17:43:11.235Z,24.63
2018-12-05T17:45:40.643Z,24.27
2018-12-05T17:48:09.831Z,25.63
2018-12-05T17:50:39.190Z,25.93
2018-12-05T17:53:10.191Z,25.30
2018-12-05T17:55:39.583Z,24.27
2018-12-05T17:58:08.968Z,28.60
2018-12-05T18:00:38.359Z,27.27
2018-12-05T18:03:07.637Z,29.57
2018-12-05T18:05:36.944Z,26.93
2018-12-05T18:08:09.032Z,28.40
2018-12-05T18:10:38.384Z,30.73
2018-12-05T18:13:07.681Z,32.53
2018-12-05T18:15:37.116Z,32.87
2018-12-05T18:18:07.247Z,34.13
2018-12-05T18:20:36.513Z,31.10
2018-12-05T18:23:05.822Z,32.23
2018-12-05T18:25:35.222Z,29.07
2018-12-05T18:28:04.543Z,30.10
2018-12-05T18:30:36.890Z,31.93
2018-12-05T18:33:06.408Z,33.37
2018-12-05T18:35:35.968Z,41.40
2018-12-05T18:38:05.321Z,46.00
2018-12-05T18:40:34.658Z,44.93
2018-12-05T18:43:04.050Z,44.10
2018-12-05T18:45:33.308Z,44.57
2018-12-05T18:48:02.704Z,45.27
2018-12-05T18:50:32.102Z,45.63
2018-12-05T18:53:01.466Z,43.77
2018-12-05T18:55:30.919Z,41.97
2018-12-05T18:58:00.311Z,45.90
2018-12-05T19:00:30.043Z,41.20
2018-12-05T19:02:59.383Z,38.67
2018-12-05T19:05:28.778Z,38.00
2018-12-05T19:07:58.202Z,35.97
2018-12-05T19:10:29.781Z,35.63
2018-12-05T19:12:59.180Z,36.47
2018-12-05T19:15:28.572Z,35.57
2018-12-05T19:17:59.894Z,35.40
2018-12-05T19:20:29.212Z,33.83
2018-12-05T19:22:58.646Z,32.80
2018-12-05T19:25:30.992Z,35.40
2018-12-05T19:28:00.362Z,33.87
2018-12-05T19:30:29.683Z,34.47
2018-12-05T19:32:59.172Z,36.03
2018-12-05T19:35:28.464Z,37.80
2018-12-05T19:37:57.924Z,36.63
2018-12-05T19:40:28.420Z,41.27
2018-12-05T19:42:57.936Z,37.63
2018-12-05T19:45:27.444Z,31.17
2018-12-05T19:47:57.029Z,29.60
2018-12-05T19:50:26.308Z,29.97
2018-12-05T19:52:55.742Z,30.10
2018-12-05T19:55:25.162Z,29.23
2018-12-05T19:57:54.463Z,26.30
2018-12-05T20:00:23.911Z,27.77
2018-12-05T20:02:53.311Z,26.97
2018-12-05T20:05:22.632Z,26.63
2018-12-05T20:07:52.047Z,28.20
2018-12-05T20:10:21.399Z,28.83
2018-12-05T20:12:50.831Z,29.67
2018-12-05T20:15:20.175Z,33.37
2018-12-05T20:17:49.630Z,34.97
2018-12-05T20:20:19.253Z,35.27
2018-12-05T20:22:48.608Z,34.20
2018-12-05T20:25:18.253Z,32.50
2018-12-05T20:27:47.645Z,31.93
2018-12-05T20:30:16.930Z,33.40
2018-12-05T20:32:46.382Z,32.07
2018-12-05T20:35:15.946Z,33.50
2018-12-05T20:37:45.317Z,31.00
2018-12-05T20:40:14.705Z,32.90
2018-12-05T20:42:44.064Z,31.17
2018-12-05T20:45:13.468Z,33.93
2018-12-05T20:47:42.931Z,32.10
2018-12-05T20:50:12.371Z,31.60
2018-12-05T20:52:41.743Z,32.40
2018-12-05T20:55:11.148Z,29.90
2018-12-05T20:57:40.551Z,30.30
2018-12-05T21:00:10.002Z,30.60
2018-12-05T21:02:41.285Z,30.30
2018-12-05T21:05:10.700Z,30.30
2018-12-05T21:07:40.444Z,33.47
2018-12-05T21:10:09.784Z,31.47
2018-12-05T21:12:39.143Z,30.03
2018-12-05T21:15:08.939Z,30.70
2018-12-05T21:17:38.295Z,31.80
2018-12-05T21:20:07.704Z,31.30
2018-12-05T21:22:37.124Z,30.93
2018-12-05T21:25:06.460Z,32.30
2018-12-05T21:27:35.965Z,32.73
2018-12-05T21:30:06.577Z,35.77
2018-12-05T21:32:35.899Z,35.73
2018-12-05T21:35:08.638Z,34.17
2018-12-05T21:37:37.919Z,35.23
2018-12-05T21:40:07.303Z,34.90
2018-12-05T21:42:36.724Z,29.53
2018-12-05T21:45:06.292Z,31.43
2018-12-05T21:47:35.585Z,31.10
2018-12-05T21:50:05.346Z,31.73
2018-12-05T21:52:34.733Z,30.73
2018-12-05T21:55:04.652Z,32.43
2018-12-05T21:57:34.121Z,30.50
2018-12-05T22:00:04.141Z,30.93
2018-12-05T22:02:38.416Z,36.87
2018-12-05T22:05:07.805Z,31.00
2018-12-05T22:07:37.190Z,30.23
2018-12-05T22:10:08.525Z,31.67
2018-12-05T22:12:38.084Z,29.33
2018-12-05T22:15:07.621Z,30.97
2018-12-05T22:17:37.542Z,31.27
2018-12-05T22:20:11.030Z,30.27
2018-12-05T22:22:40.416Z,30.50
2018-12-05T22:25:09.845Z,30.50
2018-12-05T22:27:39.286Z,32.53
2018-12-05T22:30:09.385Z,31.70
2018-12-05T22:32:38.656Z,30.93
2018-12-05T22:35:07.970Z,32.57
2018-12-05T22:37:37.385Z,32.97
2018-12-05T22:40:07.826Z,33.83
2018-12-05T22:42:37.178Z,35.83
2018-12-05T22:45:06.673Z,34.63
2018-12-05T22:47:36.060Z,35.77
2018-12-05T22:50:06.036Z,36.47
2018-12-05T22:52:35.477Z,35.30
2018-12-05T22:55:05.057Z,35.37
2018-12-05T22:57:34.410Z,33.53
2018-12-05T23:00:05.425Z,34.00
2018-12-05T23:02:36.669Z,31.23
2018-12-05T23:05:06.494Z,33.70
2018-12-05T23:07:36.349Z,33.17
2018-12-05T23:10:05.924Z,32.87
2018-12-05T23:12:35.281Z,35.53
2018-12-05T23:15:04.964Z,35.37
2018-12-05T23:17:34.302Z,34.00
2018-12-05T23:20:03.930Z,35.63
2018-12-05T23:22:33.241Z,35.27
2018-12-05T23:25:02.597Z,31.73
2018-12-05T23:27:31.932Z,33.33
2018-12-05T23:30:01.396Z,40.40
2018-12-05T23:32:31.007Z,37.23
2018-12-05T23:35:00.442Z,35.10
2018-12-05T23:37:29.818Z,38.33
2018-12-05T23:39:59.297Z,34.17
2018-12-05T23:42:28.636Z,33.07
2018-12-05T23:44:57.999Z,33.60
2018-12-05T23:47:27.466Z,35.23
2018-12-05T23:49:56.846Z,33.73
2018-12-05T23:52:26.277Z,33.57
2018-12-05T23:54:55.922Z,34.30
2018-12-05T23:57:25.291Z,34.50
2018-12-05T23:59:54.670Z,35.13
